sensor_id;sensor_type;location;lat;lon;timestamp;noise_LAeq;noise_LA_min;noise_LA_max;noise_LA01;noise_LA95
71020;Laerm;58902;51.436;5.980;2023-07-29T00:00:09;42.91;31.93;53.70;;
71020;Laerm;58902;51.436;5.980;2023-07-29T00:00:20;39.59;32.00;42.89;;
71020;Laerm;58902;51.436;5.980;2023-07-29T00:00:30;39.26;32.33;42.05;;
71020;Laerm;58902;51.436;5.980;2023-07-29T00:00:41;39.37;31.39;42.81;;
71020;Laerm;58902;51.436;5.980;2023-07-29T00:00:51;39.17;31.92;42.45;;
71020;Laerm;58902;51.436;5.980;2023-07-29T00:01:02;39.04;31.42;41.96;;
71020;Laerm;58902;51.436;5.980;2023-07-29T00:01:12;39.01;31.38;41.75;;
71020;Laerm;58902;51.436;5.980;2023-07-29T00:01:22;38.63;31.01;41.88;;
71020;Laerm;58902;51.436;5.980;2023-07-29T00:01:34;38.72;31.09;42.00;;
71020;Laerm;58902;51.436;5.980;2023-07-29T00:01:44;39.12;30.46;42.70;;
71020;Laerm;58902;51.436;5.980;2023-07-29T00:01:55;39.26;30.78;42.86;;
71020;Laerm;58902;51.436;5.980;2023-07-29T00:02:05;39.36;30.90;42.20;;
71020;Laerm;58902;51.436;5.980;2023-07-29T00:02:15;39.36;31.30;42.42;;
71020;Laerm;58902;51.436;5.980;2023-07-29T00:02:26;39.18;31.17;42.40;;
71020;Laerm;58902;51.436;5.980;2023-07-29T00:02:39;39.29;32.07;42.15;;
71020;Laerm;58902;51.436;5.980;2023-07-29T00:02:50;39.32;31.27;42.23;;
71020;Laerm;58902;51.436;5.980;2023-07-29T00:03:00;39.20;30.74;42.15;;
71020;Laerm;58902;51.436;5.980;2023-07-29T00:03:10;39.25;31.67;42.20;;
71020;Laerm;58902;51.436;5.980;2023-07-29T00:03:21;39.55;32.06;42.78;;
71020;Laerm;58902;51.436;5.980;2023-07-29T00:03:31;39.25;31.88;42.27;;
71020;Laerm;58902;51.436;5.980;2023-07-29T00:03:42;39.46;32.04;42.59;;
71020;Laerm;58902;51.436;5.980;2023-07-29T00:03:52;39.54;32.33;42.27;;
71020;Laerm;58902;51.436;5.980;2023-07-29T00:04:02;38.91;31.49;42.21;;
71020;Laerm;58902;51.436;5.980;2023-07-29T00:04:13;39.57;32.45;44.69;;
71020;Laerm;58902;51.436;5.980;2023-07-29T00:04:23;39.43;33.81;42.31;;
71020;Laerm;58902;51.436;5.980;2023-07-29T00:04:33;39.61;32.01;42.29;;
71020;Laerm;58902;51.436;5.980;2023-07-29T00:04:44;38.66;31.84;41.93;;
71020;Laerm;58902;51.436;5.980;2023-07-29T00:04:54;39.04;32.57;41.62;;
71020;Laerm;58902;51.436;5.980;2023-07-29T00:05:05;39.05;31.36;42.11;;
71020;Laerm;58902;51.436;5.980;2023-07-29T00:05:15;39.35;32.00;42.31;;
71020;Laerm;58902;51.436;5.980;2023-07-29T00:05:25;39.15;33.26;41.82;;
71020;Laerm;58902;51.436;5.980;2023-07-29T00:05:37;39.42;32.50;42.21;;
71020;Laerm;58902;51.436;5.980;2023-07-29T00:05:47;39.72;33.06;42.42;;
71020;Laerm;58902;51.436;5.980;2023-07-29T00:05:58;39.50;32.88;44.44;;
71020;Laerm;58902;51.436;5.980;2023-07-29T00:06:09;39.51;33.08;42.10;;
71020;Laerm;58902;51.436;5.980;2023-07-29T00:06:20;40.30;34.66;43.09;;
71020;Laerm;58902;51.436;5.980;2023-07-29T00:06:30;40.45;35.68;42.92;;
71020;Laerm;58902;51.436;5.980;2023-07-29T00:06:40;40.23;33.51;43.02;;
71020;Laerm;58902;51.436;5.980;2023-07-29T00:06:51;39.26;32.47;42.97;;
71020;Laerm;58902;51.436;5.980;2023-07-29T00:07:01;43.25;38.53;46.65;;
71020;Laerm;58902;51.436;5.980;2023-07-29T00:07:11;40.98;35.08;45.43;;
71020;Laerm;58902;51.436;5.980;2023-07-29T00:07:21;40.05;34.66;42.41;;
71020;Laerm;58902;51.436;5.980;2023-07-29T00:07:32;39.96;35.18;42.61;;
71020;Laerm;58902;51.436;5.980;2023-07-29T00:07:42;64.45;36.46;79.24;;
71020;Laerm;58902;51.436;5.980;2023-07-29T00:07:52;72.45;67.76;78.80;;
71020;Laerm;58902;51.436;5.980;2023-07-29T00:08:03;74.94;65.38;82.65;;
71020;Laerm;58902;51.436;5.980;2023-07-29T00:08:13;63.83;45.52;71.97;;
71020;Laerm;58902;51.436;5.980;2023-07-29T00:08:23;43.46;36.38;49.38;;
71020;Laerm;58902;51.436;5.980;2023-07-29T00:08:34;39.84;33.65;42.72;;
71020;Laerm;58902;51.436;5.980;2023-07-29T00:08:44;39.49;32.71;42.41;;
71020;Laerm;58902;51.436;5.980;2023-07-29T00:08:54;39.38;32.64;43.16;;
71020;Laerm;58902;51.436;5.980;2023-07-29T00:09:05;39.10;32.78;41.90;;
71020;Laerm;58902;51.436;5.980;2023-07-29T00:09:15;38.94;31.91;42.32;;
71020;Laerm;58902;51.436;5.980;2023-07-29T00:09:25;38.94;32.96;41.99;;
71020;Laerm;58902;51.436;5.980;2023-07-29T00:09:36;39.16;31.96;42.54;;
71020;Laerm;58902;51.436;5.980;2023-07-29T00:09:46;39.08;31.92;42.60;;
71020;Laerm;58902;51.436;5.980;2023-07-29T00:09:56;38.69;31.48;41.82;;
71020;Laerm;58902;51.436;5.980;2023-07-29T00:10:07;39.35;31.79;42.36;;
71020;Laerm;58902;51.436;5.980;2023-07-29T00:10:17;39.02;31.74;42.21;;
71020;Laerm;58902;51.436;5.980;2023-07-29T00:10:28;38.67;32.19;41.65;;
71020;Laerm;58902;51.436;5.980;2023-07-29T00:10:38;38.88;31.75;42.18;;
71020;Laerm;58902;51.436;5.980;2023-07-29T00:10:49;39.03;31.84;42.00;;
71020;Laerm;58902;51.436;5.980;2023-07-29T00:10:59;38.70;31.18;42.62;;
71020;Laerm;58902;51.436;5.980;2023-07-29T00:11:09;38.62;31.89;41.28;;
71020;Laerm;58902;51.436;5.980;2023-07-29T00:11:20;38.86;31.58;41.92;;
71020;Laerm;58902;51.436;5.980;2023-07-29T00:11:30;39.05;32.54;41.90;;
71020;Laerm;58902;51.436;5.980;2023-07-29T00:11:42;39.41;32.53;43.34;;
71020;Laerm;58902;51.436;5.980;2023-07-29T00:11:52;39.51;32.76;43.10;;
71020;Laerm;58902;51.436;5.980;2023-07-29T00:12:03;40.15;34.05;42.86;;
71020;Laerm;58902;51.436;5.980;2023-07-29T00:12:14;40.16;34.38;42.97;;
71020;Laerm;58902;51.436;5.980;2023-07-29T00:12:24;39.88;33.11;42.49;;
71020;Laerm;58902;51.436;5.980;2023-07-29T00:12:35;39.78;32.89;42.49;;
71020;Laerm;58902;51.436;5.980;2023-07-29T00:12:45;39.88;32.20;42.87;;
71020;Laerm;58902;51.436;5.980;2023-07-29T00:12:56;40.14;32.02;43.73;;
71020;Laerm;58902;51.436;5.980;2023-07-29T00:13:06;39.57;31.93;42.98;;
71020;Laerm;58902;51.436;5.980;2023-07-29T00:13:17;39.51;31.75;42.43;;
71020;Laerm;58902;51.436;5.980;2023-07-29T00:13:27;39.34;33.01;42.25;;
71020;Laerm;58902;51.436;5.980;2023-07-29T00:13:38;39.09;32.77;42.51;;
71020;Laerm;58902;51.436;5.980;2023-07-29T00:13:48;39.31;31.93;42.66;;
71020;Laerm;58902;51.436;5.980;2023-07-29T00:14:00;39.57;31.91;42.83;;
71020;Laerm;58902;51.436;5.980;2023-07-29T00:14:11;39.46;33.87;42.45;;
71020;Laerm;58902;51.436;5.980;2023-07-29T00:14:21;39.92;34.84;42.62;;
71020;Laerm;58902;51.436;5.980;2023-07-29T00:14:31;40.26;34.63;44.80;;
71020;Laerm;58902;51.436;5.980;2023-07-29T00:14:42;39.35;32.89;41.79;;
71020;Laerm;58902;51.436;5.980;2023-07-29T00:14:52;39.50;32.83;42.49;;
71020;Laerm;58902;51.436;5.980;2023-07-29T00:15:02;39.38;31.40;42.34;;
71020;Laerm;58902;51.436;5.980;2023-07-29T00:15:13;40.34;33.72;43.89;;
71020;Laerm;58902;51.436;5.980;2023-07-29T00:15:23;39.84;32.34;43.42;;
71020;Laerm;58902;51.436;5.980;2023-07-29T00:15:33;39.75;32.41;43.05;;
71020;Laerm;58902;51.436;5.980;2023-07-29T00:15:44;40.09;32.49;43.10;;
71020;Laerm;58902;51.436;5.980;2023-07-29T00:15:55;40.28;32.12;44.67;;
71020;Laerm;58902;51.436;5.980;2023-07-29T00:16:05;39.68;32.19;42.57;;
71020;Laerm;58902;51.436;5.980;2023-07-29T00:16:16;40.23;32.52;43.05;;
71020;Laerm;58902;51.436;5.980;2023-07-29T00:16:27;40.49;34.56;43.62;;
71020;Laerm;58902;51.436;5.980;2023-07-29T00:16:37;40.96;36.02;43.48;;
71020;Laerm;58902;51.436;5.980;2023-07-29T00:16:48;40.52;35.02;42.99;;
71020;Laerm;58902;51.436;5.980;2023-07-29T00:16:58;39.76;32.16;42.46;;
71020;Laerm;58902;51.436;5.980;2023-07-29T00:17:09;39.59;33.74;42.56;;
71020;Laerm;58902;51.436;5.980;2023-07-29T00:17:19;40.05;32.91;42.91;;
71020;Laerm;58902;51.436;5.980;2023-07-29T00:17:30;39.78;31.43;42.82;;
71020;Laerm;58902;51.436;5.980;2023-07-29T00:17:40;39.95;31.61;42.73;;
71020;Laerm;58902;51.436;5.980;2023-07-29T00:17:51;39.91;33.07;42.60;;
71020;Laerm;58902;51.436;5.980;2023-07-29T00:18:01;39.60;30.56;43.07;;
71020;Laerm;58902;51.436;5.980;2023-07-29T00:18:11;39.76;31.07;43.38;;
71020;Laerm;58902;51.436;5.980;2023-07-29T00:18:22;39.35;30.92;42.96;;
71020;Laerm;58902;51.436;5.980;2023-07-29T00:18:33;39.31;31.28;42.45;;
71020;Laerm;58902;51.436;5.980;2023-07-29T00:18:43;39.41;32.63;42.42;;
71020;Laerm;58902;51.436;5.980;2023-07-29T00:18:54;38.37;31.05;42.42;;
71020;Laerm;58902;51.436;5.980;2023-07-29T00:19:04;39.23;30.71;43.05;;
71020;Laerm;58902;51.436;5.980;2023-07-29T00:19:15;39.26;31.06;42.26;;
71020;Laerm;58902;51.436;5.980;2023-07-29T00:19:25;39.58;31.50;42.75;;
71020;Laerm;58902;51.436;5.980;2023-07-29T00:19:35;39.56;31.68;42.20;;
71020;Laerm;58902;51.436;5.980;2023-07-29T00:19:46;39.15;31.73;42.09;;
71020;Laerm;58902;51.436;5.980;2023-07-29T00:19:56;39.35;31.42;43.20;;
71020;Laerm;58902;51.436;5.980;2023-07-29T00:20:07;39.84;33.28;42.59;;
71020;Laerm;58902;51.436;5.980;2023-07-29T00:20:17;39.77;30.11;42.81;;
71020;Laerm;58902;51.436;5.980;2023-07-29T00:20:28;42.86;34.27;46.50;;
71020;Laerm;58902;51.436;5.980;2023-07-29T00:20:38;41.06;32.85;45.23;;
71020;Laerm;58902;51.436;5.980;2023-07-29T00:20:49;40.42;33.56;43.25;;
71020;Laerm;58902;51.436;5.980;2023-07-29T00:21:00;40.07;32.41;43.77;;
71020;Laerm;58902;51.436;5.980;2023-07-29T00:21:10;40.20;33.77;42.89;;
71020;Laerm;58902;51.436;5.980;2023-07-29T00:21:21;66.39;37.92;73.26;;
71020;Laerm;58902;51.436;5.980;2023-07-29T00:21:31;68.17;63.96;73.23;;
71020;Laerm;58902;51.436;5.980;2023-07-29T00:21:41;63.95;42.07;69.67;;
71020;Laerm;58902;51.436;5.980;2023-07-29T00:21:51;41.65;35.67;45.41;;
71020;Laerm;58902;51.436;5.980;2023-07-29T00:22:02;40.33;32.38;48.04;;
71020;Laerm;58902;51.436;5.980;2023-07-29T00:22:12;39.81;32.22;43.12;;
71020;Laerm;58902;51.436;5.980;2023-07-29T00:22:23;39.29;30.65;42.81;;
71020;Laerm;58902;51.436;5.980;2023-07-29T00:22:33;39.02;30.79;42.54;;
71020;Laerm;58902;51.436;5.980;2023-07-29T00:22:43;39.23;31.90;42.65;;
71020;Laerm;58902;51.436;5.980;2023-07-29T00:22:54;39.72;32.53;42.62;;
71020;Laerm;58902;51.436;5.980;2023-07-29T00:23:04;39.50;30.76;43.19;;
71020;Laerm;58902;51.436;5.980;2023-07-29T00:23:15;39.48;32.81;42.63;;
71020;Laerm;58902;51.436;5.980;2023-07-29T00:23:25;39.20;30.46;42.44;;
71020;Laerm;58902;51.436;5.980;2023-07-29T00:23:35;38.70;30.40;43.58;;
71020;Laerm;58902;51.436;5.980;2023-07-29T00:23:46;40.00;30.08;43.60;;
71020;Laerm;58902;51.436;5.980;2023-07-29T00:23:56;40.38;30.50;45.37;;
71020;Laerm;58902;51.436;5.980;2023-07-29T00:24:11;41.35;33.00;44.94;;
71020;Laerm;58902;51.436;5.980;2023-07-29T00:24:21;41.39;31.69;45.39;;
71020;Laerm;58902;51.436;5.980;2023-07-29T00:24:31;41.37;32.54;46.15;;
71020;Laerm;58902;51.436;5.980;2023-07-29T00:24:42;38.85;32.63;44.03;;
71020;Laerm;58902;51.436;5.980;2023-07-29T00:24:52;39.50;32.43;43.90;;
71020;Laerm;58902;51.436;5.980;2023-07-29T00:25:05;42.39;30.75;45.55;;
71020;Laerm;58902;51.436;5.980;2023-07-29T00:25:16;40.48;34.46;45.19;;
71020;Laerm;58902;51.436;5.980;2023-07-29T00:25:26;39.95;33.24;42.78;;
71020;Laerm;58902;51.436;5.980;2023-07-29T00:25:36;39.97;33.95;42.68;;
71020;Laerm;58902;51.436;5.980;2023-07-29T00:25:46;53.91;36.87;69.67;;
71020;Laerm;58902;51.436;5.980;2023-07-29T00:25:57;77.02;68.32;85.51;;
71020;Laerm;58902;51.436;5.980;2023-07-29T00:26:07;73.65;69.71;80.40;;
71020;Laerm;58902;51.436;5.980;2023-07-29T00:26:17;72.14;44.57;80.11;;
71020;Laerm;58902;51.436;5.980;2023-07-29T00:26:28;43.86;38.98;47.59;;
71020;Laerm;58902;51.436;5.980;2023-07-29T00:26:42;40.25;35.01;44.75;;
71020;Laerm;58902;51.436;5.980;2023-07-29T00:26:52;35.58;32.11;43.87;;
71020;Laerm;58902;51.436;5.980;2023-07-29T00:27:02;33.36;31.81;34.92;;
71020;Laerm;58902;51.436;5.980;2023-07-29T00:27:13;33.25;31.71;35.92;;
71020;Laerm;58902;51.436;5.980;2023-07-29T00:27:23;33.15;30.93;34.79;;
71020;Laerm;58902;51.436;5.980;2023-07-29T00:27:33;33.42;30.71;36.03;;
71020;Laerm;58902;51.436;5.980;2023-07-29T00:27:44;31.72;30.16;33.32;;
71020;Laerm;58902;51.436;5.980;2023-07-29T00:27:55;31.04;29.62;32.28;;
71020;Laerm;58902;51.436;5.980;2023-07-29T00:28:06;30.87;29.72;33.79;;
71020;Laerm;58902;51.436;5.980;2023-07-29T00:28:16;31.47;29.80;33.40;;
71020;Laerm;58902;51.436;5.980;2023-07-29T00:28:26;32.01;30.33;33.63;;
71020;Laerm;58902;51.436;5.980;2023-07-29T00:28:37;32.08;30.67;33.88;;
71020;Laerm;58902;51.436;5.980;2023-07-29T00:28:47;31.90;30.42;33.12;;
71020;Laerm;58902;51.436;5.980;2023-07-29T00:28:58;31.92;30.17;33.49;;
71020;Laerm;58902;51.436;5.980;2023-07-29T00:29:08;31.72;30.04;33.02;;
71020;Laerm;58902;51.436;5.980;2023-07-29T00:29:18;33.24;30.60;35.71;;
71020;Laerm;58902;51.436;5.980;2023-07-29T00:29:29;34.37;32.62;39.85;;
71020;Laerm;58902;51.436;5.980;2023-07-29T00:29:39;41.13;37.06;43.72;;
71020;Laerm;58902;51.436;5.980;2023-07-29T00:29:49;37.35;33.87;43.51;;
71020;Laerm;58902;51.436;5.980;2023-07-29T00:30:00;35.51;34.08;37.11;;
71020;Laerm;58902;51.436;5.980;2023-07-29T00:30:10;35.82;34.00;37.34;;
71020;Laerm;58902;51.436;5.980;2023-07-29T00:30:21;38.90;34.81;43.83;;
71020;Laerm;58902;51.436;5.980;2023-07-29T00:30:31;70.25;42.44;77.85;;
71020;Laerm;58902;51.436;5.980;2023-07-29T00:30:41;70.25;67.09;74.16;;
71020;Laerm;58902;51.436;5.980;2023-07-29T00:30:52;68.73;40.47;75.29;;
71020;Laerm;58902;51.436;5.980;2023-07-29T00:31:02;38.55;34.84;42.65;;
71020;Laerm;58902;51.436;5.980;2023-07-29T00:31:12;38.22;33.83;51.92;;
71020;Laerm;58902;51.436;5.980;2023-07-29T00:31:23;35.08;33.21;37.03;;
71020;Laerm;58902;51.436;5.980;2023-07-29T00:31:33;34.74;32.65;36.22;;
71020;Laerm;58902;51.436;5.980;2023-07-29T00:31:43;34.42;32.82;35.86;;
71020;Laerm;58902;51.436;5.980;2023-07-29T00:31:54;34.42;32.41;37.40;;
71020;Laerm;58902;51.436;5.980;2023-07-29T00:32:04;34.76;32.94;36.63;;
71020;Laerm;58902;51.436;5.980;2023-07-29T00:32:14;34.57;32.64;36.24;;
71020;Laerm;58902;51.436;5.980;2023-07-29T00:32:26;34.33;32.56;36.37;;
71020;Laerm;58902;51.436;5.980;2023-07-29T00:32:37;34.77;32.99;36.52;;
71020;Laerm;58902;51.436;5.980;2023-07-29T00:32:47;34.90;33.09;36.66;;
71020;Laerm;58902;51.436;5.980;2023-07-29T00:32:57;34.77;32.91;36.56;;
71020;Laerm;58902;51.436;5.980;2023-07-29T00:33:08;34.43;32.85;36.45;;
71020;Laerm;58902;51.436;5.980;2023-07-29T00:33:18;34.39;32.59;36.08;;
71020;Laerm;58902;51.436;5.980;2023-07-29T00:33:30;34.58;32.35;36.61;;
71020;Laerm;58902;51.436;5.980;2023-07-29T00:33:40;34.78;32.90;36.38;;
71020;Laerm;58902;51.436;5.980;2023-07-29T00:33:50;34.78;32.91;36.71;;
71020;Laerm;58902;51.436;5.980;2023-07-29T00:34:02;36.23;33.11;41.47;;
71020;Laerm;58902;51.436;5.980;2023-07-29T00:34:13;36.64;34.87;38.06;;
71020;Laerm;58902;51.436;5.980;2023-07-29T00:34:27;36.16;34.17;38.08;;
71020;Laerm;58902;51.436;5.980;2023-07-29T00:34:37;34.98;33.21;36.32;;
71020;Laerm;58902;51.436;5.980;2023-07-29T00:34:48;34.92;33.48;36.84;;
71020;Laerm;58902;51.436;5.980;2023-07-29T00:34:58;35.32;33.44;36.99;;
71020;Laerm;58902;51.436;5.980;2023-07-29T00:35:10;35.54;33.35;37.95;;
71020;Laerm;58902;51.436;5.980;2023-07-29T00:35:21;35.52;33.69;37.69;;
71020;Laerm;58902;51.436;5.980;2023-07-29T00:35:31;36.47;33.47;39.11;;
71020;Laerm;58902;51.436;5.980;2023-07-29T00:35:41;38.40;36.03;40.04;;
71020;Laerm;58902;51.436;5.980;2023-07-29T00:35:52;38.48;36.51;40.11;;
71020;Laerm;58902;51.436;5.980;2023-07-29T00:36:02;36.28;33.86;39.87;;
71020;Laerm;58902;51.436;5.980;2023-07-29T00:36:13;35.78;34.16;37.80;;
71020;Laerm;58902;51.436;5.980;2023-07-29T00:36:23;35.78;34.26;37.65;;
71020;Laerm;58902;51.436;5.980;2023-07-29T00:36:33;35.73;34.22;37.33;;
71020;Laerm;58902;51.436;5.980;2023-07-29T00:36:44;35.83;34.13;37.26;;
71020;Laerm;58902;51.436;5.980;2023-07-29T00:36:54;35.73;34.21;37.50;;
71020;Laerm;58902;51.436;5.980;2023-07-29T00:37:04;35.56;33.86;37.61;;
71020;Laerm;58902;51.436;5.980;2023-07-29T00:37:16;34.92;33.54;36.36;;
71020;Laerm;58902;51.436;5.980;2023-07-29T00:37:27;34.79;33.09;36.32;;
71020;Laerm;58902;51.436;5.980;2023-07-29T00:37:37;34.75;33.03;36.85;;
71020;Laerm;58902;51.436;5.980;2023-07-29T00:37:47;34.76;33.17;36.36;;
71020;Laerm;58902;51.436;5.980;2023-07-29T00:37:58;34.79;33.31;36.71;;
71020;Laerm;58902;51.436;5.980;2023-07-29T00:38:08;34.81;33.26;36.48;;
71020;Laerm;58902;51.436;5.980;2023-07-29T00:38:19;34.75;33.27;36.55;;
71020;Laerm;58902;51.436;5.980;2023-07-29T00:38:29;34.67;32.66;36.01;;
71020;Laerm;58902;51.436;5.980;2023-07-29T00:38:39;34.80;33.28;36.28;;
71020;Laerm;58902;51.436;5.980;2023-07-29T00:38:50;39.57;33.90;44.13;;
71020;Laerm;58902;51.436;5.980;2023-07-29T00:39:00;40.27;35.50;44.92;;
71020;Laerm;58902;51.436;5.980;2023-07-29T00:39:11;37.20;34.90;38.89;;
71020;Laerm;58902;51.436;5.980;2023-07-29T00:39:21;36.87;34.87;38.31;;
71020;Laerm;58902;51.436;5.980;2023-07-29T00:39:32;38.52;34.72;43.41;;
71020;Laerm;58902;51.436;5.980;2023-07-29T00:39:43;67.94;40.38;74.78;;
71020;Laerm;58902;51.436;5.980;2023-07-29T00:39:53;70.99;68.58;73.86;;
71020;Laerm;58902;51.436;5.980;2023-07-29T00:40:06;68.01;40.32;74.35;;
71020;Laerm;58902;51.436;5.980;2023-07-29T00:40:20;37.60;34.46;41.79;;
71020;Laerm;58902;51.436;5.980;2023-07-29T00:40:31;36.24;34.85;38.11;;
71020;Laerm;58902;51.436;5.980;2023-07-29T00:40:45;36.40;34.85;37.93;;
71020;Laerm;58902;51.436;5.980;2023-07-29T00:40:58;36.29;34.51;39.24;;
71020;Laerm;58902;51.436;5.980;2023-07-29T00:41:10;36.22;34.54;38.27;;
71020;Laerm;58902;51.436;5.980;2023-07-29T00:41:23;36.04;34.55;37.81;;
71020;Laerm;58902;51.436;5.980;2023-07-29T00:41:33;36.03;34.00;37.45;;
71020;Laerm;58902;51.436;5.980;2023-07-29T00:41:44;35.84;34.42;37.18;;
71020;Laerm;58902;51.436;5.980;2023-07-29T00:41:54;35.36;33.30;37.04;;
71020;Laerm;58902;51.436;5.980;2023-07-29T00:42:04;34.76;33.07;36.23;;
71020;Laerm;58902;51.436;5.980;2023-07-29T00:42:15;34.78;32.99;36.37;;
71020;Laerm;58902;51.436;5.980;2023-07-29T00:42:25;35.05;33.50;36.93;;
71020;Laerm;58902;51.436;5.980;2023-07-29T00:42:36;37.75;34.02;42.72;;
71020;Laerm;58902;51.436;5.980;2023-07-29T00:42:46;36.44;34.78;38.20;;
71020;Laerm;58902;51.436;5.980;2023-07-29T00:42:56;35.62;33.28;37.56;;
71020;Laerm;58902;51.436;5.980;2023-07-29T00:43:06;35.29;33.14;37.05;;
71020;Laerm;58902;51.436;5.980;2023-07-29T00:43:17;35.51;33.42;37.07;;
71020;Laerm;58902;51.436;5.980;2023-07-29T00:43:27;36.81;34.43;39.33;;
71020;Laerm;58902;51.436;5.980;2023-07-29T00:43:37;37.77;36.39;38.98;;
71020;Laerm;58902;51.436;5.980;2023-07-29T00:43:48;37.57;35.93;38.77;;
71020;Laerm;58902;51.436;5.980;2023-07-29T00:43:58;36.14;34.22;38.33;;
71020;Laerm;58902;51.436;5.980;2023-07-29T00:44:08;35.53;33.85;37.24;;
71020;Laerm;58902;51.436;5.980;2023-07-29T00:44:19;35.48;33.71;37.39;;
71020;Laerm;58902;51.436;5.980;2023-07-29T00:44:29;35.85;34.17;38.25;;
71020;Laerm;58902;51.436;5.980;2023-07-29T00:44:41;36.54;34.31;40.26;;
71020;Laerm;58902;51.436;5.980;2023-07-29T00:44:52;36.52;34.61;42.46;;
71020;Laerm;58902;51.436;5.980;2023-07-29T00:45:02;35.75;33.20;38.11;;
71020;Laerm;58902;51.436;5.980;2023-07-29T00:45:13;34.49;33.09;35.87;;
71020;Laerm;58902;51.436;5.980;2023-07-29T00:45:24;34.52;32.96;36.02;;
71020;Laerm;58902;51.436;5.980;2023-07-29T00:45:35;34.39;32.99;36.03;;
71020;Laerm;58902;51.436;5.980;2023-07-29T00:45:46;34.37;32.17;36.77;;
71020;Laerm;58902;51.436;5.980;2023-07-29T00:45:56;34.43;32.81;35.72;;
71020;Laerm;58902;51.436;5.980;2023-07-29T00:46:08;34.39;32.86;36.10;;
71020;Laerm;58902;51.436;5.980;2023-07-29T00:46:19;34.34;32.85;35.93;;
71020;Laerm;58902;51.436;5.980;2023-07-29T00:46:30;34.31;32.80;35.77;;
71020;Laerm;58902;51.436;5.980;2023-07-29T00:46:41;34.30;32.89;36.09;;
71020;Laerm;58902;51.436;5.980;2023-07-29T00:46:52;34.28;32.42;36.29;;
71020;Laerm;58902;51.436;5.980;2023-07-29T00:47:03;34.27;32.26;36.02;;
71020;Laerm;58902;51.436;5.980;2023-07-29T00:47:15;34.31;32.62;36.05;;
71020;Laerm;58902;51.436;5.980;2023-07-29T00:47:26;34.24;32.62;36.03;;
71020;Laerm;58902;51.436;5.980;2023-07-29T00:47:36;34.15;32.52;35.70;;
71020;Laerm;58902;51.436;5.980;2023-07-29T00:47:47;34.24;32.23;35.88;;
71020;Laerm;58902;51.436;5.980;2023-07-29T00:47:58;34.29;32.40;36.21;;
71020;Laerm;58902;51.436;5.980;2023-07-29T00:48:09;34.21;32.64;35.97;;
71020;Laerm;58902;51.436;5.980;2023-07-29T00:48:20;34.14;32.21;38.51;;
71020;Laerm;58902;51.436;5.980;2023-07-29T00:48:30;34.23;32.38;36.09;;
71020;Laerm;58902;51.436;5.980;2023-07-29T00:48:40;34.40;32.76;36.54;;
71020;Laerm;58902;51.436;5.980;2023-07-29T00:48:51;34.87;32.83;37.43;;
71020;Laerm;58902;51.436;5.980;2023-07-29T00:49:01;35.75;33.98;38.14;;
71020;Laerm;58902;51.436;5.980;2023-07-29T00:49:11;36.60;35.09;38.29;;
71020;Laerm;58902;51.436;5.980;2023-07-29T00:49:22;35.96;34.52;37.17;;
71020;Laerm;58902;51.436;5.980;2023-07-29T00:49:32;35.55;33.19;37.33;;
71020;Laerm;58902;51.436;5.980;2023-07-29T00:49:43;34.48;32.74;36.21;;
71020;Laerm;58902;51.436;5.980;2023-07-29T00:49:54;34.43;32.69;36.27;;
71020;Laerm;58902;51.436;5.980;2023-07-29T00:50:08;34.73;32.84;36.97;;
71020;Laerm;58902;51.436;5.980;2023-07-29T00:50:19;34.47;32.88;36.42;;
71020;Laerm;58902;51.436;5.980;2023-07-29T00:50:30;34.28;32.57;35.81;;
71020;Laerm;58902;51.436;5.980;2023-07-29T00:50:41;34.27;32.53;36.06;;
71020;Laerm;58902;51.436;5.980;2023-07-29T00:50:51;34.24;32.72;35.98;;
71020;Laerm;58902;51.436;5.980;2023-07-29T00:51:01;34.32;32.30;36.15;;
71020;Laerm;58902;51.436;5.980;2023-07-29T00:51:12;34.17;32.38;36.35;;
71020;Laerm;58902;51.436;5.980;2023-07-29T00:51:22;34.15;31.88;35.74;;
71020;Laerm;58902;51.436;5.980;2023-07-29T00:51:33;34.23;32.50;36.42;;
71020;Laerm;58902;51.436;5.980;2023-07-29T00:51:43;34.33;32.41;35.75;;
71020;Laerm;58902;51.436;5.980;2023-07-29T00:51:53;34.19;32.39;35.90;;
71020;Laerm;58902;51.436;5.980;2023-07-29T00:52:04;34.30;32.28;36.85;;
71020;Laerm;58902;51.436;5.980;2023-07-29T00:52:14;34.76;33.00;36.51;;
71020;Laerm;58902;51.436;5.980;2023-07-29T00:52:25;34.69;33.00;36.13;;
71020;Laerm;58902;51.436;5.980;2023-07-29T00:52:35;34.61;32.85;36.36;;
71020;Laerm;58902;51.436;5.980;2023-07-29T00:52:46;34.40;32.67;36.25;;
71020;Laerm;58902;51.436;5.980;2023-07-29T00:52:56;34.62;32.70;36.19;;
71020;Laerm;58902;51.436;5.980;2023-07-29T00:53:07;34.45;32.67;36.43;;
71020;Laerm;58902;51.436;5.980;2023-07-29T00:53:17;34.55;33.08;36.26;;
71020;Laerm;58902;51.436;5.980;2023-07-29T00:53:27;34.56;32.55;36.34;;
71020;Laerm;58902;51.436;5.980;2023-07-29T00:53:38;36.01;32.65;41.58;;
71020;Laerm;58902;51.436;5.980;2023-07-29T00:53:48;34.71;33.10;36.84;;
71020;Laerm;58902;51.436;5.980;2023-07-29T00:53:58;34.69;32.68;36.14;;
71020;Laerm;58902;51.436;5.980;2023-07-29T00:54:09;34.66;32.86;36.61;;
71020;Laerm;58902;51.436;5.980;2023-07-29T00:54:19;34.93;33.13;36.43;;
71020;Laerm;58902;51.436;5.980;2023-07-29T00:54:29;35.21;33.16;37.21;;
71020;Laerm;58902;51.436;5.980;2023-07-29T00:54:40;35.00;33.34;36.60;;
71020;Laerm;58902;51.436;5.980;2023-07-29T00:54:50;35.70;33.22;40.87;;
71020;Laerm;58902;51.436;5.980;2023-07-29T00:55:00;37.68;34.83;41.04;;
71020;Laerm;58902;51.436;5.980;2023-07-29T00:55:11;38.16;36.26;40.72;;
71020;Laerm;58902;51.436;5.980;2023-07-29T00:55:21;37.53;36.02;38.77;;
71020;Laerm;58902;51.436;5.980;2023-07-29T00:55:32;37.11;34.57;38.80;;
71020;Laerm;58902;51.436;5.980;2023-07-29T00:55:42;35.56;33.94;37.17;;
71020;Laerm;58902;51.436;5.980;2023-07-29T00:55:53;35.46;34.01;36.96;;
71020;Laerm;58902;51.436;5.980;2023-07-29T00:56:04;35.53;33.86;37.07;;
71020;Laerm;58902;51.436;5.980;2023-07-29T00:56:14;35.54;34.31;36.88;;
71020;Laerm;58902;51.436;5.980;2023-07-29T00:56:24;35.53;33.90;36.88;;
71020;Laerm;58902;51.436;5.980;2023-07-29T00:56:35;35.56;33.63;37.06;;
71020;Laerm;58902;51.436;5.980;2023-07-29T00:56:45;35.59;34.13;36.90;;
71020;Laerm;58902;51.436;5.980;2023-07-29T00:56:55;35.69;34.33;37.08;;
71020;Laerm;58902;51.436;5.980;2023-07-29T00:57:09;36.85;33.90;38.24;;
71020;Laerm;58902;51.436;5.980;2023-07-29T00:57:21;36.43;34.88;38.45;;
71020;Laerm;58902;51.436;5.980;2023-07-29T00:57:32;36.00;33.89;38.00;;
71020;Laerm;58902;51.436;5.980;2023-07-29T00:57:43;34.82;33.22;36.36;;
71020;Laerm;58902;51.436;5.980;2023-07-29T00:57:58;34.91;33.12;36.38;;
71020;Laerm;58902;51.436;5.980;2023-07-29T00:58:09;34.78;33.14;36.73;;
71020;Laerm;58902;51.436;5.980;2023-07-29T00:58:20;34.66;32.91;36.36;;
71020;Laerm;58902;51.436;5.980;2023-07-29T00:58:30;34.82;33.01;36.05;;
71020;Laerm;58902;51.436;5.980;2023-07-29T00:58:40;34.99;33.16;36.74;;
71020;Laerm;58902;51.436;5.980;2023-07-29T00:58:51;34.75;32.81;36.48;;
71020;Laerm;58902;51.436;5.980;2023-07-29T00:59:08;34.85;32.78;37.65;;
71020;Laerm;58902;51.436;5.980;2023-07-29T00:59:19;34.65;33.04;36.18;;
71020;Laerm;58902;51.436;5.980;2023-07-29T00:59:29;34.76;32.77;36.96;;
71020;Laerm;58902;51.436;5.980;2023-07-29T00:59:42;34.78;33.11;36.19;;